National Weather Service United States Department of Commerce

Severe Weather Threat Will Continue Through the Weekend

The risk for severe thunderstorms continues through the weekend. The main threat will shift from parts of eastern Texas into the Ozark Plateau and spread into the lower Mississippi Valley by Saturday afternoon and evening. Severe storms are possible in the Tennessee Valley and southern Plains Sunday. Storms may contain damaging winds, hail and an isolated tornado. Read More >


733
FTPA31 PHFO 242346
TAFSTU
TAF
NSTU 242346Z 2500/2524 10013KT P6SM VCSH SCT015 SCT040 BKN120=


064
SAZS31 NSTU 250351
MTRPPG
METAR NSTU 250350Z 12011KT 12SM SCT024 31/28 A2984 RMK SLP107
T03110278=


METAR Formatted Surface Weather Observation  Issued: 03/24/2017 04:03:14 PM SST

NSTU Observation History

 

Significant Weather Charts